Time;durP1;ratioP1;P1;durP2;ratioP2;P2;SDS_P1;SDS_P2;PMS_P1;PMS_P2;Temp;Humidity;BMP_temperature;BMP_pressure;BME280_temperature;BME280_humidity;BME280_pressure;Samples;Min_cycle;Max_cycle;Signal;HPM_P1;HPM_P2
2022/05/31 00:01:14;;;;;;;5.47;3.65;;;;;;;10.06;100.00;98706.13;4485642;31;20096;-71
2022/05/31 00:03:41;;;;;;;7.68;4.57;;;;;;;10.10;100.00;98693.62;4484050;32;20130;-71
2022/05/31 00:06:08;;;;;;;5.75;3.72;;;;;;;10.07;100.00;98697.34;4485501;31;20115;-70
2022/05/31 00:08:41;;;;;;;6.47;3.97;;;;;;;10.06;100.00;98690.44;4485415;31;20159;-70
2022/05/31 00:11:08;;;;;;;10.20;4.53;;;;;;;10.06;100.00;98687.00;4485594;32;20110;-70
2022/05/31 00:13:35;;;;;;;6.80;4.12;;;;;;;10.02;100.00;98696.94;4485659;31;20119;-70
2022/05/31 00:16:03;;;;;;;7.80;4.40;;;;;;;10.04;100.00;98696.78;4485572;32;20167;-70
2022/05/31 00:18:30;;;;;;;6.37;3.95;;;;;;;9.95;100.00;98688.78;4485612;31;20114;-70
2022/05/31 00:20:57;;;;;;;8.35;3.83;;;;;;;9.90;100.00;98696.22;4485429;32;20134;-70
2022/05/31 00:23:24;;;;;;;6.55;3.62;;;;;;;9.89;100.00;98701.56;4485458;31;20134;-71
2022/05/31 00:25:52;;;;;;;5.53;4.18;;;;;;;9.86;100.00;98705.28;4485709;31;20122;-71
2022/05/31 00:28:19;;;;;;;6.10;3.70;;;;;;;9.91;100.00;98705.69;4485300;31;20131;-70
2022/05/31 00:30:47;;;;;;;6.05;3.30;;;;;;;9.98;100.00;98706.00;4485647;31;20521;-71
2022/05/31 00:33:14;;;;;;;9.07;3.50;;;;;;;10.03;100.00;98711.66;4483941;32;20370;-70
2022/05/31 00:35:45;;;;;;;7.85;3.67;;;;;;;9.99;100.00;98712.06;4485021;32;20152;-70
2022/05/31 00:38:13;;;;;;;10.98;3.60;;;;;;;9.99;100.00;98717.28;4485438;31;20143;-70
2022/05/31 00:40:40;;;;;;;4.30;3.40;;;;;;;9.97;100.00;98708.75;4484072;32;20100;-70
2022/05/31 00:43:12;;;;;;;6.15;3.55;;;;;;;9.97;100.00;98712.19;4485175;31;20100;-70
2022/05/31 00:45:56;;;;;;;6.22;3.40;;;;;;;9.98;100.00;98711.22;4484314;32;20381;-70
2022/05/31 00:48:31;;;;;;;6.45;3.42;;;;;;;9.99;100.00;98720.72;4485378;31;20141;-70
2022/05/31 00:51:02;;;;;;;5.62;3.62;;;;;;;10.01;100.00;98725.81;4485617;31;20104;-70
2022/05/31 00:53:36;;;;;;;6.32;3.67;;;;;;;9.99;100.00;98720.72;4484226;32;20088;-70
2022/05/31 00:56:07;;;;;;;7.55;3.58;;;;;;;9.99;100.00;98728.56;4484059;32;20163;-71
2022/05/31 00:58:37;;;;;;;6.22;3.75;;;;;;;10.01;100.00;98731.91;4483945;32;20072;-70
2022/05/31 01:01:07;;;;;;;9.43;4.10;;;;;;;10.00;100.00;98732.03;4484243;32;20122;-70
2022/05/31 01:03:37;;;;;;;5.78;3.37;;;;;;;9.92;100.00;98732.72;4484983;31;20092;-71
2022/05/31 01:06:05;;;;;;;5.40;3.22;;;;;;;9.86;100.00;98726.22;4485203;31;20147;-70
2022/05/31 01:08:34;;;;;;;5.57;3.50;;;;;;;9.77;100.00;98730.44;4484932;31;20080;-70
2022/05/31 01:11:05;;;;;;;5.75;3.35;;;;;;;9.67;100.00;98732.19;4485582;31;20097;-70
2022/05/31 01:13:41;;;;;;;7.15;3.20;;;;;;;9.58;100.00;98733.00;4485133;31;20089;-70
2022/05/31 01:16:14;;;;;;;6.83;3.43;;;;;;;9.55;100.00;98733.25;4484186;32;20089;-70
2022/05/31 01:18:47;;;;;;;10.07;3.42;;;;;;;9.52;100.00;98739.59;4485177;31;20101;-71
2022/05/31 01:21:16;;;;;;;6.95;3.33;;;;;;;9.45;100.00;98737.59;4485306;31;20101;-70
2022/05/31 01:23:50;;;;;;;3.53;3.12;;;;;;;9.40;100.00;98749.31;4485211;31;20136;-70
2022/05/31 01:26:36;;;;;;;4.95;3.20;;;;;;;9.39;100.00;98741.59;4484865;31;20488;-70
2022/05/31 01:29:26;;;;;;;5.37;3.30;;;;;;;9.38;100.00;98753.00;4485047;31;20560;-70
2022/05/31 01:31:59;;;;;;;4.57;3.28;;;;;;;9.34;100.00;98744.59;4483626;32;20520;-70
2022/05/31 01:34:45;;;;;;;7.12;3.42;;;;;;;9.33;100.00;98749.97;4484795;31;20092;-70
2022/05/31 01:37:12;;;;;;;7.25;3.22;;;;;;;9.25;100.00;98748.00;4483811;32;20163;-70
2022/05/31 01:39:45;;;;;;;5.65;3.25;;;;;;;9.22;100.00;98748.25;4484794;32;20096;-70
2022/05/31 01:42:15;;;;;;;5.32;3.40;;;;;;;9.22;100.00;98754.31;4483629;32;20612;-70
2022/05/31 01:44:49;;;;;;;6.70;4.03;;;;;;;9.18;100.00;98750.28;4484819;31;20084;-70
2022/05/31 01:47:17;;;;;;;6.53;3.35;;;;;;;9.20;100.00;98745.75;4484784;31;20072;-71
2022/05/31 01:49:49;;;;;;;5.47;3.75;;;;;;;9.20;100.00;98755.38;4483380;32;20114;-70
2022/05/31 01:52:17;;;;;;;6.57;3.80;;;;;;;9.22;100.00;98758.72;4484779;31;20123;-70
2022/05/31 01:54:44;;;;;;;9.73;3.65;;;;;;;9.26;100.00;98760.09;4483367;32;20108;-70
2022/05/31 01:57:13;;;;;;;5.65;3.22;;;;;;;9.30;100.00;98758.06;4483181;32;20457;-70
2022/05/31 01:59:47;;;;;;;6.22;3.62;;;;;;;9.32;100.00;98753.53;4484526;31;20096;-70
2022/05/31 02:02:16;;;;;;;8.93;3.17;;;;;;;9.34;100.00;98756.81;4484921;31;20115;-70
2022/05/31 02:04:45;;;;;;;5.60;3.95;;;;;;;9.28;100.00;98757.34;4484334;31;20123;-70
2022/05/31 02:07:16;;;;;;;6.80;3.40;;;;;;;9.27;100.00;98761.75;4484468;31;20080;-70
2022/05/31 02:09:46;;;;;;;5.85;3.15;;;;;;;9.38;100.00;98753.81;4482945;32;20415;-70
2022/05/31 02:12:18;;;;;;;7.93;3.08;;;;;;;9.42;100.00;98759.63;4484841;31;20088;-70
2022/05/31 02:14:47;;;;;;;5.53;3.05;;;;;;;9.49;100.00;98759.94;4484630;31;20661;-70
2022/05/31 02:17:17;;;;;;;5.10;3.12;;;;;;;9.52;100.00;98767.50;4484595;31;20141;-70
2022/05/31 02:19:48;;;;;;;6.25;3.58;;;;;;;9.46;100.00;98761.00;4483115;32;20076;-70
2022/05/31 02:22:18;;;;;;;8.98;3.40;;;;;;;9.39;100.00;98759.91;4484279;32;20085;-70
2022/05/31 02:24:45;;;;;;;7.03;3.62;;;;;;;9.36;100.00;98758.34;4484036;31;20084;-70
2022/05/31 02:27:14;;;;;;;5.25;3.67;;;;;;;9.41;100.00;98757.97;4484254;32;20566;-70
2022/05/31 02:29:42;;;;;;;11.02;3.92;;;;;;;9.40;100.00;98753.69;4484151;31;20599;-71
2022/05/31 02:32:12;;;;;;;6.30;3.90;;;;;;;9.52;100.00;98760.53;4484106;32;20123;-70
2022/05/31 02:34:44;;;;;;;6.55;3.70;;;;;;;9.52;100.00;98764.91;4483885;32;20100;-70
2022/05/31 02:37:12;;;;;;;6.87;3.75;;;;;;;9.53;100.00;98766.56;4484032;31;20114;-70
2022/05/31 02:39:39;;;;;;;5.53;3.80;;;;;;;9.49;100.00;98766.00;4483035;32;20092;-70
2022/05/31 02:42:10;;;;;;;7.60;3.87;;;;;;;9.48;100.00;98763.50;4484062;31;20409;-70
2022/05/31 02:44:38;;;;;;;4.97;3.62;;;;;;;9.47;100.00;98767.09;4484194;31;20080;-70
2022/05/31 02:47:07;;;;;;;4.93;3.70;;;;;;;9.49;100.00;98770.41;4483902;31;20088;-70
2022/05/31 02:49:39;;;;;;;6.45;4.47;;;;;;;9.50;100.00;98766.81;4483861;32;20096;-70
2022/05/31 02:52:07;;;;;;;5.60;3.85;;;;;;;9.51;100.00;98771.12;4484017;31;20111;-70
2022/05/31 02:54:34;;;;;;;5.95;3.83;;;;;;;9.48;100.00;98776.56;4483882;31;20115;-70
2022/05/31 02:57:09;;;;;;;4.10;3.42;;;;;;;9.46;100.00;98773.28;4483976;31;20540;-70
2022/05/31 02:59:38;;;;;;;6.20;3.90;;;;;;;9.45;100.00;98771.59;4483990;31;20590;-70
2022/05/31 03:02:10;;;;;;;11.95;4.95;;;;;;;9.44;100.00;98768.16;4483920;32;20468;-70
2022/05/31 03:04:45;;;;;;;10.02;4.35;;;;;;;9.51;100.00;98766.69;4483774;31;20092;-70
2022/05/31 03:07:14;;;;;;;8.38;4.47;;;;;;;9.54;100.00;98766.44;4483659;32;20475;-70
2022/05/31 03:09:42;;;;;;;9.05;3.92;;;;;;;9.61;100.00;98766.72;4485109;31;20084;-70
2022/05/31 03:12:14;;;;;;;6.93;4.07;;;;;;;9.59;100.00;98771.28;4486055;31;20100;-70
2022/05/31 03:14:43;;;;;;;14.20;4.78;;;;;;;9.67;100.00;98768.00;4484789;32;20168;-70
2022/05/31 03:17:21;;;;;;;7.35;3.92;;;;;;;9.74;100.00;98764.72;4486092;31;20123;-71
2022/05/31 03:19:52;;;;;;;6.68;3.97;;;;;;;9.76;100.00;98761.97;4484627;32;20118;-70
2022/05/31 03:22:23;;;;;;;6.93;4.10;;;;;;;9.82;100.00;98765.84;4484722;32;20096;-70
2022/05/31 03:25:07;;;;;;;11.00;4.05;;;;;;;9.95;100.00;98766.47;4485840;31;20089;-70
2022/05/31 03:27:35;;;;;;;;;;;;;;;10.06;100.00;98770.75;4484865;32;20115;-70
2022/05/31 03:30:03;;;;;;;6.25;3.60;;;;;;;10.13;100.00;98766.66;4485765;31;19968;-70
2022/05/31 03:32:31;;;;;;;5.37;3.40;;;;;;;10.19;100.00;98770.50;4485765;31;20100;-70
2022/05/31 03:34:58;;;;;;;6.45;3.55;;;;;;;10.24;100.00;98766.53;4485668;32;20490;-70
2022/05/31 03:37:26;;;;;;;4.70;2.95;;;;;;;10.31;100.00;98772.06;4486016;32;20096;-70
2022/05/31 03:39:53;;;;;;;5.35;3.30;;;;;;;10.38;100.00;98772.38;4485908;32;20558;-70
2022/05/31 03:42:21;;;;;;;6.43;3.30;;;;;;;10.42;100.00;98779.81;4485947;32;20096;-70
2022/05/31 03:44:48;;;;;;;5.12;3.30;;;;;;;10.50;100.00;98775.69;4485922;32;20171;-71
2022/05/31 03:47:17;;;;;;;4.53;2.97;;;;;;;10.56;100.00;98767.28;4484656;32;20105;-70
2022/05/31 03:49:46;;;;;;;3.92;2.70;;;;;;;10.60;100.00;98773.91;4485929;31;20092;-70
2022/05/31 03:52:13;;;;;;;4.05;2.45;;;;;;;10.70;100.00;98776.53;4485621;32;20084;-70
2022/05/31 03:54:41;;;;;;;4.45;2.30;;;;;;;10.79;100.00;98776.50;4485596;32;20444;-70
2022/05/31 03:57:16;;;;;;;3.58;2.45;;;;;;;10.89;100.00;98780.94;4485585;32;20188;-70
2022/05/31 03:59:44;;;;;;;3.12;2.30;;;;;;;11.06;100.00;98782.84;4485638;32;20088;-71
2022/05/31 04:02:12;;;;;;;3.03;2.25;;;;;;;11.12;100.00;98790.16;4485683;31;20478;-71
2022/05/31 04:04:39;;;;;;;3.78;2.00;;;;;;;11.15;100.00;98787.25;4485448;32;20088;-70
2022/05/31 04:07:06;;;;;;;3.00;1.80;;;;;;;11.27;100.00;98787.09;4485282;31;20590;-71
2022/05/31 04:09:34;;;;;;;3.42;1.95;;;;;;;11.40;100.00;98787.63;4480135;31;170590;-70
2022/05/31 04:12:03;;;;;;;2.10;1.80;;;;;;;11.46;100.00;98794.09;4485542;32;20096;-70
2022/05/31 04:14:31;;;;;;;4.12;1.50;;;;;;;11.61;100.00;98803.19;4485829;31;20175;-71
2022/05/31 04:16:59;;;;;;;2.10;1.77;;;;;;;11.75;100.00;98798.41;4485325;31;20093;-70
2022/05/31 04:19:26;;;;;;;2.15;1.58;;;;;;;11.91;100.00;98793.38;4485709;31;20440;-70
2022/05/31 04:21:54;;;;;;;2.00;1.50;;;;;;;11.91;100.00;98793.38;4484103;32;20183;-70
2022/05/31 04:24:22;;;;;;;2.72;1.52;;;;;;;11.99;99.86;98797.94;4485900;31;20453;-70
2022/05/31 04:26:53;;;;;;;4.90;1.58;;;;;;;12.11;99.38;98794.13;4485495;32;20142;-71
2022/05/31 04:29:25;;;;;;;2.85;1.50;;;;;;;12.16;98.81;98786.66;4485750;31;20084;-70
2022/05/31 04:31:58;;;;;;;2.90;1.58;;;;;;;12.30;98.01;98784.53;4484680;31;20148;-70
2022/05/31 04:34:27;;;;;;;2.22;1.55;;;;;;;12.51;97.01;98785.06;4480116;31;20088;-71
2022/05/31 04:36:54;;;;;;;2.37;1.48;;;;;;;12.62;96.35;98791.91;4486459;31;20159;-71
2022/05/31 04:39:22;;;;;;;2.10;1.40;;;;;;;12.73;94.58;98788.22;4481585;31;20140;-71
2022/05/31 04:41:51;;;;;;;1.65;1.40;;;;;;;12.83;94.18;98780.28;4482592;31;20123;-71
2022/05/31 04:44:19;;;;;;;3.75;1.33;;;;;;;13.11;93.09;98786.22;4482461;31;20104;-71
2022/05/31 04:46:48;;;;;;;1.62;1.27;;;;;;;13.33;93.10;98779.66;4482303;32;20116;-71
2022/05/31 04:49:17;;;;;;;3.47;1.73;;;;;;;13.49;90.46;98774.53;4483085;32;20080;-71
2022/05/31 04:51:44;;;;;;;4.50;1.65;;;;;;;13.52;89.32;98777.81;4485220;31;20509;-71
2022/05/31 04:54:12;;;;;;;1.90;1.42;;;;;;;13.45;90.18;98777.62;4491623;31;20183;-71
2022/05/31 04:56:41;;;;;;;1.48;1.20;;;;;;;13.50;88.79;98780.59;4484973;31;20476;-71
2022/05/31 04:59:09;;;;;;;1.20;1.10;;;;;;;13.69;88.23;98782.22;4481698;32;20089;-71
2022/05/31 05:01:37;;;;;;;1.95;1.12;;;;;;;13.67;86.95;98776.25;4478642;32;20161;-71
2022/05/31 05:04:05;;;;;;;2.83;1.35;;;;;;;13.79;86.80;98779.44;4480551;32;20143;-71
2022/05/31 05:06:32;;;;;;;3.50;1.25;;;;;;;13.93;84.84;98778.00;4483825;31;20195;-71
2022/05/31 05:09:00;;;;;;;1.77;1.02;;;;;;;14.10;85.34;98781.56;4480134;31;20122;-71
2022/05/31 05:11:27;;;;;;;2.35;1.37;;;;;;;14.41;82.50;98783.63;4479101;32;20096;-71
2022/05/31 05:13:56;;;;;;;1.27;1.12;;;;;;;14.61;81.06;98789.44;4481331;31;20135;-71
2022/05/31 05:16:26;;;;;;;1.48;1.30;;;;;;;14.70;81.21;98791.94;4481809;31;20115;-71
2022/05/31 05:18:54;;;;;;;2.47;0.95;;;;;;;14.99;79.97;98790.66;4481297;31;20464;-71
2022/05/31 05:21:21;;;;;;;3.33;1.15;;;;;;;15.33;79.58;98792.25;4479137;32;20101;-71
2022/05/31 05:23:51;;;;;;;1.30;1.10;;;;;;;15.60;77.86;98792.88;4482864;32;20181;-71
2022/05/31 05:26:26;;;;;;;1.10;1.00;;;;;;;15.93;76.66;98798.09;4482697;31;20087;-71
2022/05/31 05:31:41;;;;;;;4.65;2.90;;;;;;;16.29;79.56;98805.53;4479842;32;20110;-71
2022/05/31 05:34:26;;;;;;;5.22;2.72;;;;;;;16.52;81.62;98813.50;4482848;31;20104;-71
2022/05/31 05:36:53;;;;;;;4.25;2.67;;;;;;;16.43;81.14;98810.09;4481309;31;20504;-71
2022/05/31 05:39:20;;;;;;;3.97;2.60;;;;;;;16.47;79.82;98803.47;4481171;31;20113;-71
2022/05/31 05:41:50;;;;;;;3.80;2.20;;;;;;;16.67;77.31;98803.00;4484466;31;20143;-71
2022/05/31 05:44:20;;;;;;;2.83;2.53;;;;;;;16.59;76.56;98810.97;4482204;31;20128;-71
2022/05/31 05:46:48;;;;;;;9.23;2.80;;;;;;;16.59;75.98;98809.16;4483114;32;20525;-71
2022/05/31 05:49:15;;;;;;;11.95;3.10;;;;;;;16.58;77.48;98798.75;4483614;31;20185;-71
2022/05/31 05:51:44;;;;;;;5.53;2.80;;;;;;;16.64;79.13;98803.38;4480663;31;20124;-71
2022/05/31 05:54:16;;;;;;;5.32;3.10;;;;;;;16.79;75.92;98806.91;4491928;31;20112;-71
2022/05/31 05:56:49;;;;;;;4.05;3.28;;;;;;;16.80;77.11;98813.00;4483163;31;20081;-73
2022/05/31 05:59:24;;;;;;;6.45;2.95;;;;;;;16.91;77.19;98814.44;4479521;32;20131;-71
2022/05/31 06:02:03;;;;;;;4.47;3.12;;;;;;;16.88;76.08;98814.78;4480012;32;20092;-72
2022/05/31 06:05:07;;;;;;;9.05;3.00;;;;;;;17.03;75.99;98818.31;4477377;32;20112;-72
2022/05/31 06:07:38;;;;;;;5.43;3.10;;;;;;;17.00;74.55;98821.31;4481102;32;20112;-73
2022/05/31 06:10:14;;;;;;;7.03;2.95;;;;;;;17.07;73.85;98827.56;4482198;31;20092;-72
2022/05/31 06:12:45;;;;;;;5.75;2.85;;;;;;;17.00;74.12;98826.59;4479984;32;20515;-72
2022/05/31 06:15:20;;;;;;;6.47;2.90;;;;;;;17.10;73.57;98821.91;4478968;32;20108;-71
2022/05/31 06:17:49;;;;;;;3.47;2.47;;;;;;;17.19;72.21;98827.97;4480724;32;20100;-72
2022/05/31 06:20:17;;;;;;;4.43;2.50;;;;;;;17.25;69.05;98821.13;4481644;31;20112;-72
2022/05/31 06:22:44;;;;;;;3.80;2.37;;;;;;;17.29;70.69;98827.69;4480655;31;20925;-71
2022/05/31 06:25:14;;;;;;;3.90;2.60;;;;;;;17.47;69.93;98824.72;4480004;32;20169;-71
2022/05/31 06:27:43;;;;;;;7.10;3.70;;;;;;;17.36;71.05;98821.50;4477913;32;20533;-73
2022/05/31 06:30:11;;;;;;;3.92;2.42;;;;;;;17.35;69.47;98833.13;4482408;31;20509;-72
2022/05/31 06:32:38;;;;;;;6.80;2.03;;;;;;;17.38;68.50;98842.50;4481626;32;20112;-72
2022/05/31 06:35:07;;;;;;;9.05;3.00;;;;;;;17.41;68.86;98838.69;4483102;31;20126;-71
2022/05/31 06:37:34;;;;;;;5.50;2.75;;;;;;;17.47;71.05;98835.31;4479966;31;20151;-72
2022/05/31 06:40:07;;;;;;;3.95;3.00;;;;;;;17.55;67.82;98844.00;4481238;32;20126;-72
2022/05/31 06:42:35;;;;;;;5.72;2.80;;;;;;;17.53;67.49;98853.97;4479761;31;20096;-70
2022/05/31 06:45:10;;;;;;;8.43;3.25;;;;;;;17.83;69.03;98853.19;4478371;31;20139;-72
2022/05/31 06:47:39;;;;;;;5.00;3.35;;;;;;;17.93;67.31;98850.31;4471310;31;20100;-71
2022/05/31 06:50:12;;;;;;;6.25;2.90;;;;;;;17.61;65.37;98847.78;4478475;32;20144;-72
2022/05/31 06:58:14;;;;;;;6.87;2.30;;;;;;;18.15;65.81;98843.25;4482497;32;20100;-72
2022/05/31 07:00:42;;;;;;;2.33;2.00;;;;;;;18.22;62.69;98834.37;4478591;32;20118;-72
2022/05/31 07:03:12;;;;;;;2.45;2.03;;;;;;;18.26;66.19;98834.84;4481190;32;20112;-72
2022/05/31 07:05:40;;;;;;;5.05;1.50;;;;;;;18.36;65.29;98834.53;4483311;32;20108;-73
2022/05/31 07:08:14;;;;;;;3.37;1.60;;;;;;;18.34;62.60;98834.72;4479256;32;20112;-72
2022/05/31 07:10:46;;;;;;;3.87;1.80;;;;;;;18.34;63.54;98841.87;4480858;32;20092;-72
2022/05/31 07:13:17;;;;;;;7.47;1.75;;;;;;;18.20;61.55;98835.59;4480708;31;20477;-73
2022/05/31 07:15:51;;;;;;;3.95;1.90;;;;;;;18.38;60.47;98833.34;4480447;32;20130;-73
2022/05/31 07:18:43;;;;;;;4.82;2.45;;;;;;;18.37;63.14;98837.00;4483966;32;20173;-73
2022/05/31 07:21:11;;;;;;;7.20;2.30;;;;;;;18.39;61.74;98840.28;4481998;31;20806;-73
2022/05/31 07:23:40;;;;;;;4.62;2.28;;;;;;;18.75;65.23;98838.66;4480174;31;20088;-72
2022/05/31 07:26:08;;;;;;;4.87;2.95;;;;;;;18.91;60.43;98838.44;4481176;32;20096;-72
2022/05/31 07:28:56;;;;;;;3.65;2.80;;;;;;;18.88;62.45;98838.81;4481554;32;20104;-72
2022/05/31 07:31:23;;;;;;;9.60;3.00;;;;;;;18.78;62.66;98848.88;4481050;32;20784;-73
2022/05/31 07:33:53;;;;;;;4.65;3.05;;;;;;;18.92;62.46;98850.69;4479638;32;20100;-74
2022/05/31 07:36:20;;;;;;;8.73;3.08;;;;;;;18.88;63.74;98845.94;4479906;31;21180;-71
2022/05/31 07:38:49;;;;;;;5.72;2.90;;;;;;;19.01;59.92;98838.12;4480847;32;20531;-71
2022/05/31 07:41:17;;;;;;;4.55;3.00;;;;;;;19.19;60.45;98842.16;4481818;31;20446;-72
2022/05/31 07:43:46;;;;;;;4.95;3.20;;;;;;;19.20;61.96;98846.44;4479133;32;20386;-70
2022/05/31 07:46:14;;;;;;;5.03;3.40;;;;;;;19.16;60.64;98851.31;4480893;32;20457;-72
2022/05/31 07:48:41;;;;;;;5.50;3.00;;;;;;;18.87;59.13;98854.94;4482954;31;20134;-72
2022/05/31 07:51:10;;;;;;;7.72;3.22;;;;;;;18.76;61.02;98854.38;4482751;31;20525;-72
2022/05/31 07:53:38;;;;;;;5.95;3.03;;;;;;;18.86;62.44;98851.44;4479700;32;20127;-72
2022/05/31 07:56:09;;;;;;;4.87;3.30;;;;;;;18.96;63.73;98857.25;4477142;31;20164;-71
2022/05/31 07:58:42;;;;;;;6.18;3.20;;;;;;;19.21;59.81;98858.72;4481152;32;20115;-72
2022/05/31 08:01:14;;;;;;;4.57;3.00;;;;;;;19.08;59.05;98860.25;4480057;31;20092;-72
2022/05/31 08:03:42;;;;;;;6.72;3.05;;;;;;;19.05;62.13;98860.63;4477864;31;20100;-72
2022/05/31 08:06:14;;;;;;;7.82;3.12;;;;;;;19.19;60.97;98864.22;4476508;32;20080;-72
2022/05/31 08:08:43;;;;;;;6.23;2.90;;;;;;;19.46;64.42;98867.13;4481278;32;20093;-72
2022/05/31 08:11:13;;;;;;;5.15;2.80;;;;;;;20.18;60.58;98855.34;4481082;32;20106;-71
2022/05/31 08:13:41;;;;;;;3.35;2.80;;;;;;;20.64;56.39;98863.72;4481766;32;20820;-71
2022/05/31 08:16:10;;;;;;;4.75;2.75;;;;;;;20.18;56.80;98865.16;4479081;31;20096;-72
2022/05/31 08:18:38;;;;;;;4.37;2.92;;;;;;;19.60;59.70;98870.69;4479544;32;20147;-71
2022/05/31 08:21:08;;;;;;;5.97;2.65;;;;;;;20.08;58.65;98868.19;4479167;31;20092;-71
2022/05/31 08:23:36;;;;;;;4.75;2.78;;;;;;;20.18;56.68;98854.50;4481536;32;20108;-71
2022/05/31 08:26:04;;;;;;;7.28;3.10;;;;;;;20.52;56.79;98861.62;4478398;31;20119;-71
2022/05/31 08:28:32;;;;;;;8.95;3.22;;;;;;;20.88;54.07;98873.84;4481164;31;20486;-71
2022/05/31 08:31:02;;;;;;;6.60;3.12;;;;;;;21.24;54.07;98875.34;4481897;31;20118;-71
2022/05/31 08:33:29;;;;;;;4.75;2.70;;;;;;;21.41;52.09;98880.28;4481047;32;20157;-71
2022/05/31 08:35:56;;;;;;;5.00;3.10;;;;;;;21.61;52.18;98874.97;4479204;31;20165;-71
2022/05/31 08:38:44;;;;;;;7.22;3.90;;;;;;;22.02;50.30;98871.19;4480688;31;20461;-72
2022/05/31 08:41:20;;;;;;;5.10;3.03;;;;;;;22.12;49.99;98876.94;4480186;31;20113;-71
2022/05/31 08:43:47;;;;;;;6.53;3.35;;;;;;;21.26;52.01;98875.13;4476902;32;20156;-71
2022/05/31 08:46:24;;;;;;;6.00;3.10;;;;;;;21.25;52.40;98876.97;4478644;31;20088;-71
2022/05/31 08:49:13;;;;;;;4.87;3.20;;;;;;;21.32;52.93;98876.97;4477203;32;20151;-70
2022/05/31 08:51:52;;;;;;;6.85;3.58;;;;;;;21.14;54.76;98874.09;4481762;31;20135;-71
2022/05/31 08:57:36;;;;;;;8.25;3.35;;;;;;;21.66;51.78;98875.16;4481154;31;20096;-71
2022/05/31 09:00:21;;;;;;;7.20;2.72;;;;;;;22.20;50.58;98877.72;4477113;32;20084;-71
2022/05/31 09:02:50;;;;;;;6.00;3.25;;;;;;;22.52;50.03;98869.84;4475391;32;20056;-71
2022/05/31 09:05:31;;;;;;;6.97;3.97;;;;;;;22.54;50.46;98867.78;4476830;32;20141;-71
2022/05/31 09:08:09;;;;;;;8.60;3.50;;;;;;;21.55;52.83;98870.44;4478921;32;20115;-71
2022/05/31 09:10:54;;;;;;;5.57;3.90;;;;;;;21.20;54.30;98867.97;4478154;32;20104;-71
2022/05/31 09:13:55;;;;;;;5.90;3.10;;;;;;;21.50;52.98;98871.06;4478558;32;20083;-72
2022/05/31 09:17:03;;;;;;;5.97;3.55;;;;;;;21.65;52.65;98875.34;4476934;32;20545;-71
2022/05/31 09:19:43;;;;;;;4.55;3.30;;;;;;;21.64;52.17;98863.88;4478939;32;20116;-71
2022/05/31 09:22:11;;;;;;;7.35;3.40;;;;;;;22.17;52.31;98862.16;4481037;32;20159;-70
2022/05/31 09:24:44;;;;;;;7.22;3.92;;;;;;;22.39;50.66;98860.03;4482599;32;20141;-71
2022/05/31 09:27:11;;;;;;;7.65;4.05;;;;;;;21.32;53.92;98860.16;4482963;31;20108;-71
2022/05/31 09:29:56;;;;;;;8.25;3.92;;;;;;;20.82;55.25;98865.84;4483296;31;20130;-71
2022/05/31 09:32:43;;;;;;;9.85;3.85;;;;;;;21.43;55.04;98871.03;4478718;32;20165;-71
2022/05/31 09:35:32;;;;;;;7.15;3.37;;;;;;;21.76;52.39;98864.09;4479441;31;20120;-70
2022/05/31 09:38:15;;;;;;;8.40;3.22;;;;;;;21.79;53.65;98861.00;4480030;32;20143;-71
2022/05/31 09:40:50;;;;;;;4.65;3.37;;;;;;;21.72;54.32;98861.00;4478724;32;20443;-70
2022/05/31 09:43:39;;;;;;;4.87;3.55;;;;;;;22.22;51.56;98848.97;4479568;32;20126;-71
2022/05/31 09:46:10;;;;;;;5.53;3.20;;;;;;;22.44;51.71;98858.37;4479626;31;20096;-71
2022/05/31 09:48:50;;;;;;;9.35;3.90;;;;;;;22.79;50.53;98857.19;4480576;31;20143;-71
2022/05/31 09:51:39;;;;;;;7.80;3.70;;;;;;;23.07;50.25;98853.28;4476298;31;20099;-70
2022/05/31 09:57:06;;;;;;;8.88;3.12;;;;;;;22.12;52.13;98852.91;4480823;31;20107;-69
2022/05/31 09:59:47;;;;;;;4.28;2.75;;;;;;;22.78;52.61;98850.19;4473922;31;20150;-71
2022/05/31 10:02:29;;;;;;;8.88;2.95;;;;;;;23.35;48.87;98848.38;4475902;31;20113;-71
2022/05/31 10:05:17;;;;;;;11.52;3.42;;;;;;;23.53;49.01;98847.59;4479630;31;20414;-70
2022/05/31 10:07:46;;;;;;;5.70;3.28;;;;;;;22.76;49.84;98844.25;4481963;31;20119;-72
2022/05/31 10:10:23;;;;;;;6.82;3.30;;;;;;;22.24;51.82;98838.91;4480181;32;20140;-72
2022/05/31 10:12:59;;;;;;;10.75;3.35;;;;;;;23.22;53.63;98840.44;4477278;32;20470;-72
2022/05/31 10:15:34;;;;;;;6.20;3.30;;;;;;;23.50;49.40;98840.03;4481371;32;20116;-73
2022/05/31 10:18:08;;;;;;;6.70;2.35;;;;;;;23.65;46.50;98841.53;4482911;31;20080;-72
2022/05/31 10:20:36;;;;;;;5.12;3.03;;;;;;;23.35;48.71;98843.03;4485287;32;20093;-72
2022/05/31 10:23:06;;;;;;;6.75;2.72;;;;;;;22.57;50.28;98835.31;4481922;32;20142;-73
2022/05/31 10:25:51;;;;;;;3.78;2.67;;;;;;;22.41;51.04;98833.97;4483232;32;20100;-72
2022/05/31 10:28:29;;;;;;;4.45;2.45;;;;;;;22.65;48.82;98835.03;4483581;31;20088;-73
2022/05/31 10:31:19;;;;;;;7.68;2.97;;;;;;;23.08;48.25;98836.22;4473476;32;20123;-72
2022/05/31 10:33:56;;;;;;;2.28;1.92;;;;;;;24.20;47.60;98828.22;4482945;31;20507;-74
2022/05/31 10:36:33;;;;;;;6.55;2.50;;;;;;;24.97;46.34;98832.97;4483408;32;20123;-73
2022/05/31 10:39:10;;;;;;;4.57;2.60;;;;;;;24.77;44.77;98837.81;4479200;31;20100;-72
2022/05/31 10:41:38;;;;;;;4.30;2.70;;;;;;;24.76;45.67;98842.34;4482550;32;20135;-73
2022/05/31 10:44:30;;;;;;;5.00;2.60;;;;;;;24.08;44.07;98830.00;4476484;32;20084;-73
2022/05/31 10:47:19;;;;;;;5.32;2.70;;;;;;;23.71;45.42;98835.31;4480923;32;20116;-71
2022/05/31 10:49:46;;;;;;;7.10;2.70;;;;;;;22.33;47.73;98833.16;4479315;32;20152;-73
2022/05/31 10:52:41;;;;;;;5.90;3.25;;;;;;;22.79;47.65;98836.63;4472823;32;20188;-72
2022/05/31 10:55:37;;;;;;;3.85;2.97;;;;;;;23.09;47.70;98830.69;4482622;32;20116;-72
2022/05/31 10:58:32;;;;;;;19.12;3.33;;;;;;;23.54;47.15;98833.22;4476515;31;20088;-71
2022/05/31 11:01:09;;;;;;;4.37;2.00;;;;;;;24.02;48.09;98828.22;4478870;32;20100;-72
2022/05/31 11:04:03;;;;;;;5.45;3.00;;;;;;;24.66;45.62;98830.53;4468775;32;20196;-71
2022/05/31 11:06:57;;;;;;;4.78;2.65;;;;;;;25.08;42.12;98823.31;4431695;32;20121;-72
2022/05/31 11:12:48;;;;;;;5.10;2.55;;;;;;;24.73;43.64;98831.28;4372539;32;20117;-71
2022/05/31 11:15:31;;;;;;;3.72;2.67;;;;;;;24.98;46.87;98829.25;4358428;32;20115;-72
2022/05/31 11:18:37;;;;;;;6.60;2.50;;;;;;;25.29;44.87;98826.50;4360569;32;20144;-72
2022/05/31 11:21:23;;;;;;;5.57;2.90;;;;;;;25.08;44.37;98819.81;4368788;32;20134;-71
2022/05/31 11:24:07;;;;;;;6.40;2.72;;;;;;;24.74;46.35;98823.00;4374004;32;20617;-70
2022/05/31 11:26:49;;;;;;;4.25;2.70;;;;;;;24.93;45.97;98821.06;4374785;32;20170;-72
2022/05/31 11:30:14;;;;;;;6.12;2.50;;;;;;;24.82;44.97;98819.19;4372167;32;20173;-72
2022/05/31 11:32:47;;;;;;;4.15;2.50;;;;;;;25.25;43.34;98817.28;4329216;33;20409;-73
2022/05/31 11:35:51;;;;;;;3.30;2.75;;;;;;;25.15;44.13;98818.66;4328514;33;20306;-71
2022/05/31 11:38:25;;;;;;;6.20;2.30;;;;;;;24.48;41.64;98805.37;4328825;33;20120;-73
2022/05/31 11:41:02;;;;;;;4.80;3.05;;;;;;;24.35;45.29;98808.28;4316825;33;20556;-71
2022/05/31 11:43:51;;;;;;;4.97;2.80;;;;;;;24.41;41.99;98804.69;4328268;32;20110;-72
2022/05/31 11:46:40;;;;;;;3.97;2.80;;;;;;;23.97;45.08;98806.66;4388512;32;20125;-72
2022/05/31 11:49:39;;;;;;;3.10;2.50;;;;;;;23.94;44.15;98807.09;4431648;32;20567;-72
2022/05/31 11:52:31;;;;;;;10.00;3.80;;;;;;;24.38;43.20;98802.47;4432482;32;20125;-72
2022/05/31 11:57:58;;;;;;;3.90;3.45;;;;;;;23.02;46.45;98803.97;4423868;32;20117;-73
2022/05/31 12:00:37;;;;;;;7.25;3.55;;;;;;;23.66;43.87;98801.19;4431510;32;20097;-73
2022/05/31 12:03:19;;;;;;;4.95;3.25;;;;;;;24.15;45.45;98811.19;4422345;32;20632;-73
2022/05/31 12:05:52;;;;;;;4.90;3.25;;;;;;;23.71;44.75;98790.66;4435723;32;20097;-73
2022/05/31 12:08:27;;;;;;;5.62;3.62;;;;;;;24.40;45.90;98798.50;4422545;32;20176;-73
2022/05/31 12:10:58;;;;;;;3.40;2.97;;;;;;;24.77;44.04;98795.75;4473947;32;20100;-74
2022/05/31 12:13:25;;;;;;;14.43;3.60;;;;;;;25.14;43.68;98786.72;4481564;31;20164;-72
2022/05/31 12:15:53;;;;;;;15.23;4.00;;;;;;;25.05;41.89;98780.87;4481314;32;20494;-73
2022/05/31 12:18:42;;;;;;;14.75;4.60;;;;;;;24.34;44.22;98783.34;4483903;32;20096;-73
2022/05/31 12:21:15;;;;;;;5.32;3.37;;;;;;;23.65;45.96;98782.69;4483319;31;20135;-73